Time;durP1;ratioP1;P1;durP2;ratioP2;P2;SDS_P1;SDS_P2;PMS_P1;PMS_P2;Temp;Humidity;BMP_temperature;BMP_pressure;BME280_temperature;BME280_humidity;BME280_pressure;Samples;Min_cycle;Max_cycle;Signal;HPM_P1;HPM_P2
2023/01/15 00:01:26;;;;;;;2.72;1.20;;;9.80;99.90;;;8.30;100.00;98728.91;5012313;28;20121;-80
2023/01/15 00:03:54;;;;;;;2.00;1.00;;;9.80;99.90;;;8.20;100.00;98737.72;5011795;28;20038;-79
2023/01/15 00:06:22;;;;;;;;;;;9.70;99.90;;;8.15;100.00;98790.06;4997964;28;20046;-81
2023/01/15 00:08:49;;;;;;;2.55;0.88;;;9.70;99.90;;;7.35;100.00;98803.56;4996525;28;19917;-82
2023/01/15 00:11:15;;;;;;;2.35;0.68;;;9.00;99.90;;;6.92;100.00;98808.38;4997120;28;20099;-81
2023/01/15 00:13:42;;;;;;;1.90;0.60;;;8.50;99.90;;;6.75;100.00;98800.97;5002066;28;20509;-79
2023/01/15 00:16:15;;;;;;;1.50;0.90;;;8.20;99.90;;;6.62;100.00;98809.34;5005592;28;20040;-83
2023/01/15 00:18:42;;;;;;;3.95;1.05;;;8.20;99.90;;;6.51;100.00;98794.75;4999952;28;20192;-81
2023/01/15 00:21:12;;;;;;;4.82;1.10;;;8.00;99.90;;;6.38;100.00;98803.94;5011754;28;20046;-82
2023/01/15 00:29:14;;;;;;;3.28;1.00;;;7.70;99.90;;;5.98;100.00;98807.22;4996629;28;20095;-81
2023/01/15 00:31:49;;;;;;;0.80;0.43;;;7.60;99.90;;;5.90;100.00;98808.38;4994339;28;20031;-83
2023/01/15 00:34:15;;;;;;;3.42;0.82;;;7.50;99.90;;;5.74;100.00;98818.00;5002444;28;20061;-82
2023/01/15 00:36:40;;;;;;;3.55;0.63;;;7.40;99.90;;;5.63;100.00;98837.72;5004967;28;20088;-82
2023/01/15 00:39:06;;;;;;;1.58;0.50;;;7.20;99.90;;;5.46;100.00;98876.19;4999751;28;20037;-81
2023/01/15 00:41:32;;;;;;;0.45;0.30;;;7.10;99.90;;;5.28;100.00;98848.09;5002209;28;20038;-81
2023/01/15 00:43:58;;;;;;;2.28;0.60;;;6.90;99.90;;;5.14;100.00;98830.41;4997380;28;20425;-81
2023/01/15 00:46:24;;;;;;;2.72;0.55;;;6.80;99.90;;;5.02;100.00;98836.53;5005341;28;20038;-79
2023/01/15 00:48:49;;;;;;;7.70;0.90;;;6.70;99.90;;;4.94;100.00;98844.16;5010104;28;20038;-83
2023/01/15 00:51:15;;;;;;;3.45;0.65;;;6.60;99.90;;;5.03;100.00;98845.50;4998044;28;20045;-82
2023/01/15 00:53:41;;;;;;;1.67;0.80;;;6.60;99.90;;;4.87;100.00;98852.31;5017803;28;20037;-82
2023/01/15 00:56:06;;;;;;;3.08;0.57;;;6.60;99.90;;;4.82;100.00;98857.56;5011620;28;20092;-79
2023/01/15 00:58:32;;;;;;;5.57;0.80;;;6.50;99.90;;;4.69;100.00;98853.94;5010826;28;20037;-82
2023/01/15 01:01:01;;;;;;;2.58;0.47;;;6.40;99.90;;;4.73;100.00;98857.84;5001616;28;20038;-84
2023/01/15 01:03:28;;;;;;;1.92;0.60;;;6.40;99.90;;;4.58;100.00;98868.19;5012412;28;20465;-83
2023/01/15 01:06:00;;;;;;;5.93;0.77;;;6.30;99.90;;;4.57;100.00;98894.34;5003804;28;20089;-84
2023/01/15 01:08:27;;;;;;;2.88;0.65;;;6.30;99.90;;;4.47;100.00;98891.31;4994118;28;20073;-83
2023/01/15 01:11:09;;;;;;;1.50;0.60;;;6.20;99.90;;;4.40;100.00;98883.25;4996460;28;20121;-82
2023/01/15 01:13:36;;;;;;;2.35;0.70;;;6.10;99.90;;;4.28;100.00;98888.53;5004966;28;20033;-83
2023/01/15 01:16:19;;;;;;;2.10;0.63;;;6.00;99.90;;;4.34;100.00;98908.44;5005463;28;20046;-83
2023/01/15 01:18:45;;;;;;;4.57;0.60;;;6.00;99.90;;;4.25;100.00;98912.47;5012189;28;20124;-81
2023/01/15 01:21:11;;;;;;;1.33;0.43;;;6.00;99.90;;;4.13;100.00;98905.06;5003193;28;20037;-81
2023/01/15 01:23:37;;;;;;;2.65;0.70;;;5.80;99.90;;;4.03;100.00;98902.00;5008737;28;20390;-80
2023/01/15 01:26:02;;;;;;;2.17;0.50;;;5.80;99.90;;;3.97;100.00;98908.25;5001041;28;20034;-81
2023/01/15 01:28:28;;;;;;;1.90;0.40;;;5.70;99.90;;;4.03;100.00;98910.91;5003947;28;20501;-80
2023/01/15 01:30:53;;;;;;;2.55;0.57;;;5.70;99.90;;;3.98;100.00;98929.63;5000363;28;20034;-81
2023/01/15 01:33:19;;;;;;;2.45;0.50;;;5.70;99.90;;;3.94;100.00;98919.47;5003642;28;20113;-77
2023/01/15 01:35:49;;;;;;;1.27;0.40;;;5.60;99.90;;;3.90;100.00;98935.28;4998149;28;20061;-79
2023/01/15 01:38:15;;;;;;;2.70;0.40;;;5.60;99.90;;;3.86;100.00;98950.25;5005810;28;20041;-82
2023/01/15 01:40:41;;;;;;;0.98;0.20;;;5.60;99.90;;;3.86;100.00;98944.84;4996449;28;20395;-81
2023/01/15 01:43:26;;;;;;;2.22;0.47;;;5.60;99.90;;;3.83;100.00;98951.50;5007253;28;20046;-82
2023/01/15 01:45:52;;;;;;;2.63;0.40;;;5.50;99.90;;;3.79;100.00;98941.34;4994962;28;20038;-80
2023/01/15 01:48:25;;;;;;;2.30;0.30;;;5.50;99.90;;;3.74;100.00;98950.09;4997712;28;20175;-80
2023/01/15 01:50:53;;;;;;;1.83;0.52;;;5.50;99.90;;;3.71;100.00;98953.19;5000501;28;20050;-81
2023/01/15 01:53:27;;;;;;;1.83;0.22;;;5.40;99.90;;;3.65;100.00;98970.22;5006859;28;20057;-79
2023/01/15 01:55:55;;;;;;;4.18;1.00;;;5.40;99.90;;;3.56;100.00;98951.59;5002750;28;20109;-81
2023/01/15 01:58:26;;;;;;;1.75;0.40;;;5.30;99.90;;;3.52;100.00;98953.06;4998953;28;20112;-82
2023/01/15 02:00:52;;;;;;;3.28;0.30;;;5.20;99.90;;;3.47;100.00;98950.19;5014392;28;20042;-80
2023/01/15 02:03:26;;;;;;;1.90;0.90;;;5.20;99.90;;;3.37;100.00;98947.94;4996383;28;20042;-83
2023/01/15 02:05:58;;;;;;;4.75;0.60;;;5.10;99.90;;;3.34;100.00;98940.28;5013369;28;20026;-82
2023/01/15 02:08:26;;;;;;;1.75;0.55;;;5.10;99.90;;;3.29;100.00;98959.75;5004587;28;20490;-80
2023/01/15 02:10:55;;;;;;;1.23;0.33;;;5.10;99.90;;;3.29;100.00;98932.81;5010601;28;20495;-79
2023/01/15 02:13:40;;;;;;;1.25;0.20;;;5.00;99.90;;;3.24;100.00;98945.25;5014645;28;20287;-83
2023/01/15 02:16:18;;;;;;;3.35;0.47;;;4.90;99.90;;;3.13;100.00;98944.88;4996629;28;20034;-80
2023/01/15 02:19:33;;;;;;;2.37;0.47;;;4.90;99.90;;;3.22;100.00;98948.16;4993714;28;20034;-82
2023/01/15 02:22:54;;;;;;;3.92;0.50;;;4.90;99.90;;;3.14;100.00;98934.91;4993074;28;20038;-83
2023/01/15 02:25:32;;;;;;;0.38;0.20;;;4.90;99.90;;;3.11;100.00;98948.78;5007896;28;20231;-81
2023/01/15 02:28:15;;;;;;;0.70;0.20;;;4.90;99.90;;;3.13;100.00;98955.66;5011858;28;20030;-81
2023/01/15 02:30:53;;;;;;;0.70;0.25;;;4.80;99.90;;;3.13;100.00;98961.03;4998190;28;20095;-82
2023/01/15 02:33:34;;;;;;;1.52;0.20;;;4.90;99.90;;;3.16;100.00;98979.47;5023433;28;20041;-82
2023/01/15 02:36:00;;;;;;;3.90;0.40;;;4.80;99.90;;;3.15;100.00;98955.41;5000927;28;20038;-83
2023/01/15 02:38:36;;;;;;;1.63;0.50;;;4.80;99.90;;;3.13;100.00;98957.50;5022531;28;20369;-83
2023/01/15 02:41:06;;;;;;;2.28;0.30;;;4.90;99.90;;;3.09;100.00;98962.50;5012933;28;20037;-82
2023/01/15 02:43:38;;;;;;;2.58;0.32;;;4.80;99.90;;;3.09;100.00;98946.31;5034517;28;20058;-82
2023/01/15 02:46:06;;;;;;;1.27;0.43;;;4.80;99.90;;;3.08;100.00;98950.06;5016015;28;20037;-82
2023/01/15 02:48:38;;;;;;;0.60;0.20;;;4.80;99.90;;;3.15;100.00;98971.59;4994559;28;20026;-83
2023/01/15 02:51:14;;;;;;;0.55;0.20;;;4.80;99.90;;;3.17;100.00;98975.75;4994444;28;20041;-83
2023/01/15 02:53:45;;;;;;;0.70;0.20;;;4.80;99.90;;;3.16;100.00;98978.63;5008470;28;20038;-83
2023/01/15 02:56:22;;;;;;;1.45;0.20;;;4.90;99.90;;;3.17;100.00;98947.94;5015045;28;20105;-82
2023/01/15 02:58:58;;;;;;;3.90;0.32;;;4.90;99.90;;;3.15;100.00;98940.09;4991021;28;20368;-82
2023/01/15 03:01:48;;;;;;;2.63;0.30;;;4.90;99.90;;;3.12;100.00;98934.28;4991370;28;20035;-82
2023/01/15 03:05:08;;;;;;;2.63;0.30;;;4.80;99.90;;;3.12;100.00;98929.72;5013993;28;20494;-82
2023/01/15 03:07:45;;;;;;;1.23;0.25;;;4.80;99.90;;;3.12;100.00;98910.03;4994289;28;20050;-81
2023/01/15 03:10:12;;;;;;;1.27;0.30;;;4.80;99.90;;;3.16;100.00;98924.72;5008849;28;20049;-82
2023/01/15 03:13:01;;;;;;;3.00;0.50;;;4.90;99.90;;;3.18;100.00;98928.03;5008065;28;20035;-82
2023/01/15 03:19:23;;;;;;;0.95;0.20;;;4.80;99.90;;;3.14;100.00;98924.13;5016012;28;20493;-81
2023/01/15 03:22:03;;;;;;;0.43;0.15;;;4.80;99.90;;;3.16;100.00;98935.50;5002287;28;20030;-80
2023/01/15 03:24:49;;;;;;;1.02;0.30;;;4.90;99.90;;;3.16;100.00;98924.72;4993587;28;20482;-80
2023/01/15 03:27:18;;;;;;;3.03;0.30;;;4.80;99.90;;;3.21;100.00;98932.19;5008644;28;20619;-81
2023/01/15 03:29:54;;;;;;;1.40;0.47;;;4.90;99.90;;;3.28;100.00;98924.91;4990771;28;20037;-81
2023/01/15 03:32:21;;;;;;;0.43;0.20;;;5.00;99.90;;;3.39;100.00;98918.88;5009871;28;20341;-80
2023/01/15 03:34:55;;;;;;;4.13;0.40;;;5.00;99.90;;;3.45;100.00;98911.81;5003009;28;20034;-80
2023/01/15 03:37:24;;;;;;;0.85;0.25;;;5.10;99.90;;;3.51;100.00;98918.22;5011853;28;20080;-80
2023/01/15 03:39:54;;;;;;;2.63;0.75;;;5.20;99.90;;;3.61;100.00;98907.81;4994344;28;20429;-80
2023/01/15 03:43:39;;;;;;;1.60;0.30;;;5.30;99.90;;;3.63;100.00;98916.53;5012119;28;20034;-80
2023/01/15 03:45:49;;;;;;;2.92;0.57;;;5.30;99.90;;;3.60;100.00;98909.69;5001570;28;20467;-81
2023/01/15 03:49:16;;;;;;;0.90;0.40;;;5.30;99.90;;;3.62;100.00;98927.50;4994466;28;20073;-80
2023/01/15 03:52:18;;;;;;;3.08;0.52;;;5.30;99.90;;;3.68;100.00;98907.78;4964880;28;20041;-81
2023/01/15 03:54:54;;;;;;;1.65;0.50;;;5.40;99.90;;;3.69;100.00;98904.88;4971043;28;20037;-81
2023/01/15 03:57:32;;;;;;;2.00;1.02;;;5.40;99.90;;;3.76;100.00;98885.97;4992435;28;20518;-80
2023/01/15 04:00:09;;;;;;;3.60;0.80;;;5.50;99.90;;;3.76;100.00;98904.00;4995010;28;20054;-81
2023/01/15 04:02:44;;;;;;;1.35;0.43;;;5.40;99.90;;;3.71;100.00;98886.59;5004663;28;20096;-80
2023/01/15 04:05:15;;;;;;;3.45;0.73;;;5.40;99.90;;;3.77;100.00;98897.56;5011251;28;20038;-81
2023/01/15 04:07:46;;;;;;;3.60;0.43;;;5.40;99.90;;;3.80;100.00;98897.13;4995881;28;20064;-82
2023/01/15 04:10:12;;;;;;;;;;;5.50;99.90;;;3.79;100.00;98880.13;5010761;28;20035;-81
2023/01/15 04:12:38;;;;;;;1.90;0.60;;;5.50;99.90;;;3.82;100.00;98895.03;5011177;28;19924;-81
2023/01/15 04:15:11;;;;;;;1.92;0.43;;;5.50;99.90;;;3.80;100.00;98892.56;4994816;28;20112;-81
2023/01/15 04:17:37;;;;;;;1.48;0.40;;;5.50;99.90;;;3.88;100.00;98888.81;5011550;28;20027;-80
2023/01/15 04:20:05;;;;;;;4.55;0.65;;;5.60;99.90;;;3.83;100.00;98892.16;4994829;28;20046;-81
2023/01/15 04:22:31;;;;;;;4.03;0.65;;;5.50;99.90;;;3.81;100.00;98879.91;5002841;28;20034;-81
2023/01/15 04:24:57;;;;;;;1.95;0.40;;;5.50;99.90;;;3.85;100.00;98878.44;5009519;28;20512;-81
2023/01/15 04:27:25;;;;;;;0.98;0.40;;;5.60;99.90;;;3.93;100.00;98888.13;5016555;28;20030;-81
2023/01/15 04:29:51;;;;;;;0.90;0.50;;;5.60;99.90;;;3.97;100.00;98881.25;4996488;28;20053;-81
2023/01/15 04:32:17;;;;;;;6.20;0.70;;;5.60;99.90;;;4.00;100.00;98897.03;4994026;28;20046;-81
2023/01/15 04:34:43;;;;;;;5.32;0.80;;;5.70;99.90;;;3.95;100.00;98896.84;4996532;28;20035;-81
2023/01/15 04:37:09;;;;;;;1.70;0.60;;;5.60;99.90;;;3.99;100.00;98914.28;4996243;28;20060;-81
2023/01/15 04:39:34;;;;;;;2.53;1.05;;;5.70;99.90;;;4.01;100.00;98899.50;4997014;28;20525;-81
2023/01/15 04:44:45;;;;;;;0.95;0.50;;;5.60;99.90;;;4.04;100.00;98887.47;4995849;28;20072;-80
2023/01/15 04:47:10;;;;;;;2.47;0.70;;;5.70;99.90;;;4.04;100.00;98876.69;4994983;28;20740;-81
2023/01/15 04:49:36;;;;;;;2.55;0.60;;;5.70;99.90;;;4.02;100.00;98866.09;4996165;28;20034;-79
2023/01/15 04:52:02;;;;;;;2.88;1.00;;;5.70;99.90;;;3.98;100.00;98872.16;4996289;28;20046;-79
2023/01/15 04:54:28;;;;;;;1.08;0.52;;;5.60;99.90;;;4.02;100.00;98878.75;4995969;28;20117;-78
2023/01/15 04:56:54;;;;;;;3.90;0.82;;;5.70;99.90;;;3.98;100.00;98882.94;4996235;28;20038;-79
2023/01/15 04:59:25;;;;;;;1.17;0.50;;;5.70;99.90;;;3.96;100.00;98875.06;4997540;28;20045;-78
2023/01/15 05:01:51;;;;;;;2.35;0.80;;;5.60;99.90;;;3.96;100.00;98882.31;4996832;28;20038;-78
2023/01/15 05:04:17;;;;;;;1.10;0.60;;;5.60;99.90;;;3.99;100.00;98901.59;5002303;28;20034;-78
2023/01/15 05:06:43;;;;;;;4.13;0.80;;;5.60;99.90;;;4.03;100.00;98916.31;4995748;28;20455;-79
2023/01/15 05:09:09;;;;;;;2.65;0.60;;;5.70;99.90;;;4.04;100.00;98917.16;4994895;28;20050;-78
2023/01/15 05:11:39;;;;;;;2.80;0.80;;;5.70;99.90;;;3.97;100.00;98889.34;4995555;28;20125;-78
2023/01/15 05:14:06;;;;;;;2.25;0.75;;;5.70;99.90;;;3.97;100.00;98892.91;4994225;28;20038;-78
2023/01/15 05:16:33;;;;;;;4.68;1.00;;;5.70;99.90;;;4.01;100.00;98907.59;5009856;28;20044;-78
2023/01/15 05:19:02;;;;;;;5.07;1.13;;;5.70;99.90;;;4.06;100.00;98909.66;4999475;28;20034;-78
2023/01/15 05:21:40;;;;;;;2.83;0.70;;;5.70;99.90;;;4.11;100.00;98917.09;4995062;28;20038;-78
2023/01/15 05:24:09;;;;;;;2.20;0.82;;;5.80;99.90;;;4.13;100.00;98907.75;5001676;28;20084;-78
2023/01/15 05:26:35;;;;;;;3.00;0.90;;;5.80;99.90;;;4.16;100.00;98888.41;4995343;28;20100;-78
2023/01/15 05:29:03;;;;;;;5.07;1.15;;;5.80;99.90;;;4.08;100.00;98872.50;4995214;28;20041;-78
2023/01/15 05:31:29;;;;;;;5.28;0.85;;;5.80;99.90;;;4.16;100.00;98885.72;5000082;28;20080;-78
2023/01/15 05:33:56;;;;;;;5.50;1.00;;;5.80;99.90;;;4.13;100.00;98896.94;4995016;28;20435;-78
2023/01/15 05:36:26;;;;;;;2.75;0.85;;;5.80;99.90;;;4.10;100.00;98910.03;5007600;28;20049;-78
2023/01/15 05:39:00;;;;;;;2.95;0.80;;;5.70;99.90;;;4.09;100.00;98892.19;5004179;28;20042;-78
2023/01/15 05:44:13;;;;;;;3.38;0.90;;;5.80;99.90;;;4.08;100.00;98893.25;4994704;28;20108;-78
2023/01/15 05:46:41;;;;;;;2.35;0.73;;;5.70;99.90;;;4.04;100.00;98898.25;4995162;28;20471;-78
2023/01/15 05:49:15;;;;;;;4.35;0.80;;;5.70;99.90;;;4.05;100.00;98894.53;4995315;28;20053;-78
2023/01/15 05:51:41;;;;;;;4.13;1.00;;;5.70;99.90;;;3.95;100.00;98889.59;4996111;28;20029;-78
2023/01/15 05:54:13;;;;;;;3.80;1.00;;;5.70;99.90;;;4.07;100.00;98894.28;4994472;28;20041;-78
2023/01/15 05:56:39;;;;;;;2.85;0.95;;;5.70;99.90;;;4.07;100.00;98900.53;4995107;28;20041;-78
2023/01/15 05:59:07;;;;;;;3.78;0.88;;;5.70;99.90;;;4.07;100.00;98902.38;4994533;28;20050;-78
2023/01/15 06:01:34;;;;;;;4.25;0.70;;;5.70;99.90;;;4.07;100.00;98911.31;5000008;28;20038;-78
2023/01/15 06:04:02;;;;;;;3.88;0.80;;;5.70;99.90;;;4.11;100.00;98901.75;5009132;28;20571;-78
2023/01/15 06:06:28;;;;;;;3.72;0.90;;;5.70;99.90;;;4.14;100.00;98909.41;5009287;28;20030;-79
2023/01/15 06:08:54;;;;;;;6.03;1.00;;;5.70;99.90;;;4.17;100.00;98908.97;4999707;28;20035;-77
2023/01/15 06:11:20;;;;;;;4.28;0.82;;;5.80;99.90;;;4.15;100.00;98899.44;5000870;28;20038;-77
2023/01/15 06:13:45;;;;;;;4.25;1.00;;;5.80;99.90;;;4.21;100.00;98911.22;4999325;28;20121;-78
2023/01/15 06:16:11;;;;;;;3.75;1.13;;;5.80;99.90;;;4.18;100.00;98920.59;5014267;28;20089;-77
2023/01/15 06:18:38;;;;;;;4.70;0.77;;;5.90;99.90;;;4.28;100.00;98925.53;4994627;28;20077;-78
2023/01/15 06:21:07;;;;;;;4.85;1.15;;;5.90;99.90;;;4.25;100.00;98925.97;4994115;28;20043;-79
2023/01/15 06:23:35;;;;;;;6.55;1.35;;;5.90;99.90;;;4.24;100.00;98921.59;5000897;28;20050;-79
2023/01/15 06:26:03;;;;;;;;;;;5.90;99.90;;;4.26;100.00;98922.22;4998732;28;20521;-79
2023/01/15 06:28:29;;;;;;;6.03;1.30;;;5.90;99.90;;;4.28;100.00;98914.72;4994829;28;20388;-79
2023/01/15 06:30:55;;;;;;;6.22;1.20;;;5.90;99.90;;;4.27;100.00;98927.38;4994213;28;20057;-78
2023/01/15 06:33:21;;;;;;;6.82;1.10;;;5.90;99.90;;;4.25;100.00;98934.06;5009327;28;20495;-78
2023/01/15 06:35:47;;;;;;;5.20;1.05;;;5.90;99.90;;;4.32;100.00;98921.34;5008660;28;20111;-78
2023/01/15 06:38:13;;;;;;;4.55;1.17;;;6.00;99.90;;;4.34;100.00;98913.84;4993911;28;20058;-77
2023/01/15 06:40:39;;;;;;;5.20;1.35;;;6.00;99.90;;;4.39;100.00;98908.63;4991072;28;20034;-77
2023/01/15 06:48:34;;;;;;;4.75;1.20;;;6.10;99.90;;;4.38;100.00;98920.47;4994430;28;20132;-78
2023/01/15 06:51:00;;;;;;;4.22;1.38;;;6.10;99.90;;;4.45;100.00;98931.22;4993367;28;20046;-77
2023/01/15 06:53:25;;;;;;;7.05;1.30;;;6.10;99.90;;;4.39;100.00;98900.50;5000376;28;20096;-76
2023/01/15 06:55:51;;;;;;;4.15;0.90;;;6.00;99.90;;;4.33;100.00;98904.09;4993979;28;20022;-76
2023/01/15 06:58:17;;;;;;;5.50;2.20;;;6.00;99.90;;;4.39;100.00;98921.31;4994839;28;20482;-76
2023/01/15 07:00:44;;;;;;;4.47;1.20;;;6.00;99.90;;;4.33;100.00;98931.09;5008425;28;20447;-77
2023/01/15 07:03:13;;;;;;;3.83;1.25;;;6.00;99.90;;;4.35;100.00;98918.19;4993771;28;20494;-77
2023/01/15 07:05:39;;;;;;;6.20;1.38;;;6.00;99.90;;;4.37;100.00;98924.22;4993021;28;20033;-77
2023/01/15 07:08:05;;;;;;;5.88;1.50;;;6.00;99.90;;;4.36;100.00;98913.63;4999786;28;20050;-76
2023/01/15 07:10:33;;;;;;;4.90;1.23;;;6.00;99.90;;;4.39;100.00;98914.00;5004806;28;20036;-76
2023/01/15 07:12:58;;;;;;;;;;;6.00;99.90;;;4.39;100.00;98914.00;5001729;28;20042;-76
2023/01/15 07:15:24;;;;;;;6.13;1.08;;;6.00;99.90;;;4.33;100.00;98893.28;5007634;28;19918;-76
2023/01/15 07:17:56;;;;;;;4.40;1.27;;;6.00;99.90;;;4.31;100.00;98917.00;5000497;28;20052;-76
2023/01/15 07:20:23;;;;;;;4.65;1.08;;;6.00;99.90;;;4.20;100.00;98901.47;5005689;28;20030;-77
2023/01/15 07:22:50;;;;;;;4.15;0.90;;;5.90;99.90;;;4.08;100.00;98921.06;5003935;28;20504;-77
2023/01/15 07:25:16;;;;;;;6.82;1.60;;;5.90;99.90;;;4.21;100.00;98913.91;4999885;28;20089;-78
2023/01/15 07:27:44;;;;;;;5.10;1.60;;;5.80;99.90;;;4.38;100.00;98904.25;5000151;28;20469;-76
2023/01/15 07:30:10;;;;;;;;;;;6.00;99.90;;;4.33;100.00;98906.78;5000414;28;20058;-76
2023/01/15 07:32:36;;;;;;;6.53;1.10;;;5.90;99.90;;;4.31;100.00;98920.50;4998061;28;19917;-76
2023/01/15 07:35:02;;;;;;;4.68;1.10;;;5.90;99.90;;;4.28;100.00;98923.63;4999974;28;20053;-77
2023/01/15 07:37:28;;;;;;;5.20;1.40;;;5.90;99.90;;;4.29;100.00;98919.09;5000082;28;20470;-77
2023/01/15 07:39:54;;;;;;;5.20;1.20;;;5.90;99.90;;;4.34;100.00;98929.22;5000183;28;20034;-78
2023/01/15 07:50:33;;;;;;;3.30;1.10;;;6.00;99.90;;;4.25;100.00;98899.78;4999635;28;20533;-77
2023/01/15 07:52:59;;;;;;;5.78;1.80;;;5.90;99.90;;;4.36;100.00;98898.25;5002239;28;20052;-79
2023/01/15 07:55:25;;;;;;;5.88;1.52;;;6.00;99.90;;;4.40;100.00;98910.25;5002647;28;20046;-79
2023/01/15 07:57:52;;;;;;;7.70;1.42;;;6.10;99.90;;;4.36;100.00;98910.91;4999773;28;20478;-78
2023/01/15 08:00:23;;;;;;;6.75;1.30;;;6.00;99.90;;;4.33;100.00;98904.09;5012811;28;20042;-79
2023/01/15 08:02:50;;;;;;;5.82;1.35;;;6.00;99.90;;;4.32;100.00;98924.03;4999889;28;20034;-77
2023/01/15 08:05:17;;;;;;;6.47;1.70;;;6.00;99.90;;;4.43;100.00;98927.91;4999797;28;20372;-78
2023/01/15 08:07:43;;;;;;;5.18;1.50;;;6.00;99.90;;;4.54;100.00;98946.09;5001606;28;20053;-77
2023/01/15 08:10:12;;;;;;;3.85;1.52;;;6.20;99.90;;;4.55;100.00;98914.53;5004301;28;20037;-77
2023/01/15 08:15:24;;;;;;;8.88;1.73;;;6.20;99.90;;;4.48;100.00;98930.78;4999612;28;20041;-76
2023/01/15 08:17:50;;;;;;;4.35;1.58;;;6.20;99.90;;;4.55;100.00;98915.34;4996201;28;20031;-79
2023/01/15 08:20:18;;;;;;;4.93;1.58;;;6.20;99.90;;;4.54;100.00;98927.19;4996513;28;20129;-77
2023/01/15 08:22:46;;;;;;;4.57;1.45;;;6.20;99.90;;;4.57;100.00;98924.06;5012367;28;20038;-77
2023/01/15 08:25:16;;;;;;;6.25;2.05;;;6.20;99.90;;;4.44;100.00;98897.97;5014472;28;20060;-77
2023/01/15 08:27:42;;;;;;;5.38;1.58;;;6.20;99.90;;;4.52;100.00;98923.91;5009745;28;20490;-76
2023/01/15 08:30:16;;;;;;;4.28;1.52;;;6.20;99.90;;;4.59;100.00;98910.34;4995952;28;20038;-77
2023/01/15 08:32:42;;;;;;;5.40;1.23;;;6.20;99.90;;;4.58;100.00;98890.59;4995593;28;20117;-75
2023/01/15 08:35:08;;;;;;;5.03;1.50;;;6.20;99.90;;;4.59;100.00;98908.44;4993388;28;20497;-78
2023/01/15 08:37:34;;;;;;;9.70;1.48;;;6.20;99.90;;;4.63;100.00;98926.91;4996959;28;20439;-76
2023/01/15 08:40:00;;;;;;;7.32;1.42;;;6.20;99.90;;;4.70;100.00;98917.72;5004665;28;20135;-77
2023/01/15 08:42:27;;;;;;;6.57;1.42;;;6.30;99.90;;;4.74;100.00;98921.63;4996281;28;20046;-76
2023/01/15 08:44:52;;;;;;;6.82;1.40;;;6.30;99.90;;;4.74;100.00;98924.31;4996413;28;20038;-76
2023/01/15 08:47:18;;;;;;;8.50;1.48;;;6.40;99.90;;;4.77;100.00;98927.63;4995982;28;20502;-76
2023/01/15 08:49:47;;;;;;;6.72;1.73;;;6.40;99.90;;;4.78;100.00;98929.31;4996397;28;20394;-75
2023/01/15 08:52:13;;;;;;;6.32;1.20;;;6.40;99.90;;;4.79;100.00;98936.38;4994718;28;20478;-75
2023/01/15 08:54:39;;;;;;;8.68;1.60;;;6.40;99.90;;;4.73;100.00;98957.78;4995467;28;20034;-73
2023/01/15 08:57:05;;;;;;;7.63;2.03;;;6.40;99.90;;;4.73;100.00;98948.88;5000196;28;20057;-74
2023/01/15 08:59:30;;;;;;;9.35;2.30;;;6.40;99.90;;;4.80;100.00;98946.13;4996713;28;20042;-74
2023/01/15 09:02:31;;;;;;;7.10;1.80;;;6.40;99.90;;;4.73;100.00;98919.97;5003197;28;20049;-75
2023/01/15 09:04:57;;;;;;;4.70;1.38;;;6.40;99.90;;;4.75;100.00;98908.97;4995383;28;20061;-76
2023/01/15 09:07:28;;;;;;;11.93;1.90;;;6.40;99.90;;;4.70;100.00;98923.13;4995533;28;20049;-75
2023/01/15 09:09:54;;;;;;;6.43;1.20;;;6.40;99.90;;;4.77;98.77;98933.03;4994312;28;20045;-75
2023/01/15 09:12:23;;;;;;;6.60;1.88;;;6.40;99.90;;;4.76;98.11;98924.13;4993980;28;20401;-75
2023/01/15 09:14:49;;;;;;;7.38;2.25;;;6.40;99.90;;;4.71;98.65;98940.97;4994408;28;20058;-76
2023/01/15 09:17:14;;;;;;;4.75;1.50;;;6.30;99.90;;;4.70;97.72;98931.22;5010476;28;20076;-76
2023/01/15 09:19:40;;;;;;;6.13;1.40;;;6.30;99.90;;;4.75;96.29;98925.97;4995577;28;20037;-74
2023/01/15 09:22:06;;;;;;;9.77;1.85;;;6.40;99.90;;;4.74;97.36;98918.94;5002409;28;20157;-74
2023/01/15 09:24:31;;;;;;;7.93;2.53;;;6.40;99.90;;;4.73;96.54;98954.28;5010192;28;20040;-74
2023/01/15 09:26:57;;;;;;;5.70;1.20;;;6.40;99.90;;;4.77;96.67;98942.00;5011838;28;20041;-74
2023/01/15 09:29:23;;;;;;;5.22;1.30;;;6.50;99.90;;;4.93;95.38;98946.00;4998531;28;20096;-74
2023/01/15 09:31:48;;;;;;;4.88;1.25;;;6.50;99.90;;;4.93;95.14;98951.41;4998734;28;20080;-74
2023/01/15 09:34:14;;;;;;;9.18;1.80;;;6.60;99.90;;;4.94;96.69;98944.94;4994895;28;20391;-73
2023/01/15 09:36:40;;;;;;;4.30;1.33;;;6.60;99.90;;;5.03;93.15;98943.63;4997500;28;20035;-73
2023/01/15 09:39:05;;;;;;;8.10;1.73;;;6.70;99.90;;;5.07;92.83;98919.69;5005461;28;20034;-73
2023/01/15 09:42:11;;;;;;;6.05;1.42;;;6.70;99.90;;;5.07;92.11;98927.78;4994682;28;20062;-72
2023/01/15 09:45:12;;;;;;;7.55;1.50;;;6.70;99.90;;;5.08;92.26;98950.25;4994349;28;20160;-73
2023/01/15 09:48:10;;;;;;;5.60;1.25;;;6.70;99.90;;;5.17;91.73;98938.09;5009960;28;20038;-73
2023/01/15 09:50:59;;;;;;;5.30;1.00;;;6.80;99.90;;;5.17;91.06;98941.63;4994336;28;20390;-73
2023/01/15 09:53:41;;;;;;;9.00;1.50;;;6.80;99.90;;;5.20;89.84;98934.94;4999324;28;20034;-73
2023/01/15 09:56:23;;;;;;;7.38;1.40;;;6.80;99.90;;;5.17;90.13;98927.28;4997026;28;20581;-73
2023/01/15 09:58:50;;;;;;;5.15;1.27;;;6.80;99.90;;;5.24;88.18;98927.22;4997215;28;20573;-74
2023/01/15 10:01:28;;;;;;;2.80;1.02;;;6.80;99.90;;;5.27;88.56;98914.06;4996015;28;20076;-73
2023/01/15 10:04:39;;;;;;;5.97;1.02;;;6.90;99.90;;;5.26;87.56;98911.59;4994549;28;20046;-74
2023/01/15 10:07:21;;;;;;;3.97;1.08;;;6.90;99.90;;;5.31;86.99;98909.03;4993159;28;20050;-73
2023/01/15 10:10:01;;;;;;;4.07;1.00;;;6.90;99.90;;;5.42;84.39;98892.03;4996662;28;20038;-74
2023/01/15 10:12:34;;;;;;;3.40;0.75;;;7.00;99.90;;;5.34;82.05;98908.59;5007329;28;20062;-73
2023/01/15 10:15:26;;;;;;;7.15;1.00;;;7.00;99.90;;;5.46;80.44;98914.06;4994222;28;20044;-74
2023/01/15 10:17:56;;;;;;;3.60;0.88;;;7.00;99.90;;;5.61;77.66;98901.00;4994339;28;20038;-73
2023/01/15 10:20:30;;;;;;;4.07;1.23;;;7.20;99.90;;;6.00;76.19;98908.00;4994442;28;20030;-74
2023/01/15 10:23:36;;;;;;;4.72;0.85;;;7.40;99.90;;;6.34;73.64;98919.19;4995594;28;20042;-73
2023/01/15 10:26:37;;;;;;;4.82;1.00;;;7.70;99.90;;;7.19;68.71;98908.22;4994812;28;20804;-73
2023/01/15 10:29:53;;;;;;;4.03;0.90;;;8.30;99.90;;;7.38;69.58;98917.03;4993030;28;20053;-73
2023/01/15 10:32:32;;;;;;;3.80;0.80;;;8.70;99.90;;;7.10;70.71;98942.16;4994192;28;20043;-73
2023/01/15 10:35:13;;;;;;;4.75;0.73;;;8.60;99.90;;;6.84;72.40;98949.69;4998589;28;20513;-73
2023/01/15 10:38:25;;;;;;;5.35;1.20;;;8.40;99.90;;;6.44;74.43;98949.28;5008595;28;20038;-75
2023/01/15 10:41:38;;;;;;;2.42;1.02;;;8.20;99.90;;;5.97;79.67;98949.91;4982339;28;20482;-72
2023/01/15 10:44:38;;;;;;;2.15;0.90;;;7.70;99.90;;;5.84;81.47;98960.88;5006506;28;20046;-74
2023/01/15 10:47:15;;;;;;;5.28;1.35;;;7.50;99.90;;;5.81;80.58;98980.28;5008419;28;20038;-74
2023/01/15 10:49:42;;;;;;;5.38;1.20;;;7.40;99.90;;;5.53;83.47;98968.09;5012153;28;20631;-74
2023/01/15 10:52:32;;;;;;;3.25;1.00;;;7.20;99.90;;;5.76;83.43;98956.59;4997621;28;20796;-73
2023/01/15 10:55:19;;;;;;;4.03;0.93;;;7.20;99.90;;;6.74;77.24;98955.69;4994324;28;20038;-74
2023/01/15 10:58:10;;;;;;;3.17;0.82;;;7.80;99.90;;;6.90;73.36;98937.94;4994062;28;20092;-74
2023/01/15 11:00:38;;;;;;;3.97;0.93;;;8.40;99.90;;;7.28;73.15;98938.50;4997239;28;20072;-74
2023/01/15 11:03:13;;;;;;;;;;;8.60;99.90;;;7.20;72.06;98953.28;5004395;28;20049;-74
2023/01/15 11:05:40;;;;;;;2.92;0.90;;;8.80;99.90;;;7.71;68.89;98925.59;4992964;28;19927;-74
2023/01/15 11:08:18;;;;;;;19.25;8.60;;;9.00;99.90;;;6.90;70.68;98970.47;4994179;28;20476;-73
2023/01/15 11:10:44;;;;;;;21.65;7.60;;;8.80;99.90;;;7.15;71.50;98926.00;4991664;28;20085;-75
2023/01/15 11:19:41;;;;;;;32.40;10.38;;;9.30;99.90;;;7.84;67.61;98930.75;4993979;28;20139;-74
2023/01/15 11:22:17;;;;;;;19.58;8.00;;;9.70;99.90;;;7.72;66.04;98938.09;4993172;28;20053;-74
2023/01/15 11:24:57;;;;;;;13.82;4.20;;;9.50;99.90;;;7.40;68.29;98919.50;4993930;28;20383;-73
2023/01/15 11:27:29;;;;;;;6.63;1.55;;;9.10;99.90;;;7.07;69.46;98920.94;4993466;28;20038;-74